Hundvaag 1 weather for Nov 1991
Month no. 53
Obs.
Da.
Temp. Dew Point Precip. Wind
Speed
Wind gusts Cloud cover Press. Humidity Wind dir. Sunny OPT
01.11.1991 5,9   2,9                
02.11.1991 8,5   21,5                
03.11.1991 8,9   19,2                
04.11.1991 6,5   26,6                
05.11.1991 5,0   7,3                
06.11.1991 3,8   1,0             1  
07.11.1991 5,8   12,9             1  
08.11.1991 6,0   9,1                
09.11.1991 3,4   9,4                
10.11.1991 -0,4   2,9             1  
11.11.1991 6,1   17,0                
12.11.1991 5,9   9,6                
13.11.1991 3,8   18,9                
14.11.1991 3,2   9,2                
15.11.1991 1,8   1,4                
16.11.1991 -0,5   0,0             1  
17.11.1991 2,9   0,0             1  
18.11.1991 2,4   0,0                
19.11.1991 2,0   0,0                
20.11.1991 -3,0   0,0             1  
21.11.1991 3,8   1,7                
22.11.1991 8,2   30,4                
23.11.1991 8,0   13,0                
24.11.1991 7,5   1,1                
25.11.1991 7,3   0,0             1  
26.11.1991 6,8   0,0                
27.11.1991 7,5   4,1                
28.11.1991 7,6   1,8                
29.11.1991 5,1   12,2                
30.11.1991 8,0   1,0             1  
                       
Avrg/Sum 4,9   234,2             8